Main page
METAR-TAF:

METAR-TAF

Airports :

Norrköping Airport

Norrköping, Sweden

latitude: 58-35N, longitude: 016-09E, elevation: 34 m

Current weather observation

The report was made 12 minutes ago, at 12:20 UTC
Wind 8 kt from the North/Northwest, varying between West and North/Northeast
Temperature 18°C
Humidity 32%
Pressure 1029 hPa
Visibility 10 km or more
no clouds below 1500 m and no cumulonimbus

METAR: ESSP 281220Z 33008KT 280V020 CAVOK 18/01 Q1029

Time: 14:32 (12:32 UTC)

Forecast

The report was made 1 hour and 2 minutes ago, at 11:30 UTC
Forecast valid from 28 at 12 UTC to 28 at 14 UTC
Wind 6 kt from the North
Visibility 10 km or more
no clouds below 1500 m and no cumulonimbus
Probability 40%
from 28 at 12 UTC to 28 at 13 UTC
Wind 10 kt from the East

TAF: ESSP 281130Z 2812/2814 35006KT CAVOK PROB40 2812/2813 10010KT

Weather observations and forecasts of more than 4000 airports (METAR and TAF reports).

The available stations are represented by yellow and red dots on the map.

Hover mouse over dot to see the name of the station.

Then click to see weather observations and forecasts.

To change the map : click on the green buttons with a black cross to zoom in, on the green button with a dash to zoom out, or on the green arrows for adjacent maps.


METAR-TAF: